createdAt,value
2017-08-21T00:00:24.698Z,91.4
2017-08-21T00:01:26.320Z,90.9
2017-08-21T00:02:27.935Z,91.4
2017-08-21T00:03:29.549Z,91.4
2017-08-21T00:04:31.163Z,91.6
2017-08-21T00:05:32.782Z,91.9
2017-08-21T00:06:34.396Z,91.7
2017-08-21T00:07:36.010Z,91.9
2017-08-21T00:08:37.625Z,92.2
2017-08-21T00:09:39.242Z,92.1
2017-08-21T00:10:40.865Z,93.1
2017-08-21T00:11:42.476Z,92.8
2017-08-21T00:12:44.091Z,93.5
2017-08-21T00:13:45.718Z,92.5
2017-08-21T00:14:47.327Z,93.0
2017-08-21T00:15:48.942Z,92.9
2017-08-21T00:16:50.562Z,93.2
2017-08-21T00:17:52.177Z,93.7
2017-08-21T00:18:53.794Z,93.5
2017-08-21T00:19:55.406Z,93.1
2017-08-21T00:20:57.022Z,92.5
2017-08-21T00:21:58.660Z,92.8
2017-08-21T00:23:00.256Z,93.4
2017-08-21T00:24:01.871Z,93.4
2017-08-21T00:25:03.496Z,93.3
2017-08-21T00:26:05.102Z,93.5
2017-08-21T00:27:06.715Z,92.7
2017-08-21T00:28:08.333Z,92.9
2017-08-21T00:29:09.950Z,93.1
2017-08-21T00:30:11.562Z,93.1
2017-08-21T00:31:13.179Z,93.0
2017-08-21T00:32:14.800Z,92.5
2017-08-21T00:33:16.417Z,93.0
2017-08-21T00:34:18.029Z,92.8
2017-08-21T00:35:19.643Z,93.0
2017-08-21T00:36:21.261Z,92.9
2017-08-21T00:37:22.880Z,93.4
2017-08-21T00:38:24.497Z,93.2
2017-08-21T00:39:26.117Z,92.7
2017-08-21T00:40:27.728Z,93.6
2017-08-21T00:41:29.347Z,93.9
2017-08-21T00:42:30.958Z,94.6
2017-08-21T00:43:32.574Z,94.6
2017-08-21T00:44:34.193Z,93.6
2017-08-21T00:45:35.813Z,93.9
2017-08-21T00:46:37.425Z,94.1
2017-08-21T00:47:39.038Z,93.9
2017-08-21T00:48:40.658Z,93.4
2017-08-21T00:49:42.270Z,93.6
2017-08-21T00:50:43.891Z,93.9
2017-08-21T00:51:45.509Z,93.6
2017-08-21T00:52:47.122Z,93.0
2017-08-21T00:53:48.740Z,93.3
2017-08-21T00:54:50.362Z,93.8
2017-08-21T00:55:51.975Z,93.5
2017-08-21T00:56:53.586Z,93.8
2017-08-21T00:57:55.228Z,93.5
2017-08-21T00:58:56.826Z,93.8
2017-08-21T00:59:58.438Z,94.1
2017-08-21T01:01:00.062Z,94.3
2017-08-21T01:02:01.679Z,93.7
2017-08-21T01:03:03.288Z,94.0
2017-08-21T01:04:04.900Z,93.9
2017-08-21T01:05:06.519Z,93.9
2017-08-21T01:06:08.138Z,93.8
2017-08-21T01:07:09.751Z,93.8
2017-08-21T01:08:11.366Z,93.8
2017-08-21T01:09:12.983Z,93.3
2017-08-21T01:10:14.601Z,93.4
2017-08-21T01:11:16.212Z,93.7
2017-08-21T01:12:17.827Z,93.8
2017-08-21T01:13:19.445Z,93.5
2017-08-21T01:14:21.065Z,94.4
2017-08-21T01:15:22.681Z,94.6
2017-08-21T01:16:24.297Z,94.1
2017-08-21T01:17:25.916Z,94.0
2017-08-21T01:18:27.524Z,94.3
2017-08-21T01:19:29.143Z,94.3
2017-08-21T01:20:30.762Z,94.2
2017-08-21T01:21:32.377Z,94.3
2017-08-21T01:22:33.998Z,94.9
2017-08-21T01:23:35.609Z,94.5
2017-08-21T01:24:37.221Z,94.6
2017-08-21T01:25:38.839Z,95.1
2017-08-21T01:26:40.458Z,95.7
2017-08-21T01:27:42.084Z,95.5
2017-08-21T01:28:43.684Z,95.5
2017-08-21T01:29:45.303Z,95.4
2017-08-21T01:30:46.921Z,95.3
2017-08-21T01:31:48.539Z,95.5
2017-08-21T01:32:50.150Z,95.7
2017-08-21T01:33:51.764Z,95.9
2017-08-21T01:34:53.407Z,95.6
2017-08-21T01:35:54.998Z,95.7
2017-08-21T01:36:56.613Z,95.4
2017-08-21T01:37:58.231Z,95.7
2017-08-21T01:38:59.848Z,95.9
2017-08-21T01:40:01.459Z,96.0
2017-08-21T01:41:03.071Z,96.1
2017-08-21T01:42:04.690Z,96.0
2017-08-21T01:43:06.303Z,95.9
2017-08-21T01:44:07.927Z,95.4
2017-08-21T01:45:09.541Z,95.8
2017-08-21T01:46:11.156Z,97.1
2017-08-21T01:47:12.766Z,96.9
2017-08-21T01:48:14.381Z,96.5
2017-08-21T01:49:16.002Z,96.8
2017-08-21T01:50:17.619Z,96.9
2017-08-21T01:51:19.234Z,97.2
2017-08-21T01:52:20.854Z,96.8
2017-08-21T01:53:22.468Z,97.5
2017-08-21T01:54:24.078Z,97.4
2017-08-21T01:55:25.700Z,97.2
2017-08-21T01:56:27.311Z,98.2
2017-08-21T01:57:28.925Z,98.7
2017-08-21T01:58:30.547Z,99.4
2017-08-21T01:59:32.159Z,98.5
2017-08-21T02:00:33.778Z,98.9
2017-08-21T02:01:35.393Z,99.4
2017-08-21T02:02:37.008Z,98.8
2017-08-21T02:03:38.621Z,99.0
2017-08-21T02:04:40.236Z,98.5
2017-08-21T02:05:41.858Z,99.3
2017-08-21T02:06:43.465Z,98.5
2017-08-21T02:07:45.078Z,99.0
2017-08-21T02:08:46.698Z,99.3
2017-08-21T02:09:48.314Z,98.3
2017-08-21T02:10:49.927Z,98.8
2017-08-21T02:11:51.543Z,99.3
2017-08-21T02:12:53.166Z,99.2
2017-08-21T02:13:54.779Z,98.5
2017-08-21T02:14:56.391Z,99.4
2017-08-21T02:15:58.007Z,98.4
2017-08-21T02:16:59.623Z,99.2
2017-08-21T02:18:01.237Z,98.4
2017-08-21T02:19:02.854Z,98.3
2017-08-21T02:20:04.474Z,98.7
2017-08-21T02:21:06.090Z,99.4
2017-08-21T02:22:07.699Z,98.2
2017-08-21T02:23:09.316Z,99.3
2017-08-21T02:24:10.933Z,99.4
2017-08-21T02:25:12.545Z,98.5
2017-08-21T02:26:14.162Z,98.5
2017-08-21T02:27:15.781Z,98.5
2017-08-21T02:28:17.390Z,98.5
2017-08-21T02:29:19.009Z,98.5
2017-08-21T02:30:20.622Z,98.0
2017-08-21T02:31:22.237Z,97.8
2017-08-21T02:32:23.856Z,97.9
2017-08-21T02:33:25.473Z,97.6
2017-08-21T02:34:27.087Z,98.0
2017-08-21T02:35:28.701Z,98.3
2017-08-21T02:36:30.309Z,97.9
2017-08-21T02:37:31.922Z,98.1
2017-08-21T02:38:33.540Z,98.3
2017-08-21T02:39:35.161Z,98.8
2017-08-21T02:40:36.771Z,98.5
2017-08-21T02:41:38.386Z,98.1
2017-08-21T02:42:40.008Z,98.4
2017-08-21T02:43:41.618Z,98.1
2017-08-21T02:44:43.228Z,98.6
2017-08-21T02:45:44.841Z,99.2
2017-08-21T02:46:46.461Z,98.8
2017-08-21T02:47:48.076Z,98.7
2017-08-21T02:48:49.691Z,98.5
2017-08-21T02:49:51.303Z,98.6
2017-08-21T02:50:52.926Z,98.7
2017-08-21T02:51:54.535Z,99.5
2017-08-21T02:52:56.153Z,98.9
2017-08-21T02:53:57.772Z,99.4
2017-08-21T02:54:59.382Z,99.9
2017-08-21T02:56:01.002Z,99.5
2017-08-21T02:57:02.616Z,99.5
2017-08-21T02:58:04.231Z,99.6
2017-08-21T02:59:05.840Z,99.4
2017-08-21T03:00:07.455Z,100.0
2017-08-21T03:01:09.070Z,100.0
2017-08-21T03:02:10.687Z,100.0
2017-08-21T03:03:12.308Z,100.0
2017-08-21T03:04:13.922Z,100.0
2017-08-21T03:05:15.534Z,100.0
2017-08-21T03:06:17.149Z,100.0
2017-08-21T03:07:18.769Z,100.0
2017-08-21T03:08:20.388Z,100.0
2017-08-21T03:09:22.007Z,100.0
2017-08-21T03:10:23.632Z,100.0
2017-08-21T03:11:25.237Z,100.0
2017-08-21T03:12:26.858Z,100.0
2017-08-21T03:13:28.475Z,100.0
2017-08-21T03:14:30.086Z,100.0
2017-08-21T03:15:31.703Z,100.0
2017-08-21T03:16:33.324Z,100.0
2017-08-21T03:17:34.944Z,100.0
2017-08-21T03:18:36.555Z,100.0
2017-08-21T03:19:38.172Z,100.0
2017-08-21T03:20:39.785Z,100.0
2017-08-21T03:21:41.397Z,100.0
2017-08-21T03:22:43.013Z,100.0
2017-08-21T03:23:44.634Z,100.0
2017-08-21T03:24:46.251Z,100.0
2017-08-21T03:25:47.869Z,100.0
2017-08-21T03:26:49.484Z,100.0
2017-08-21T03:27:51.093Z,100.0
2017-08-21T03:28:52.713Z,100.0
2017-08-21T03:29:54.331Z,100.0
2017-08-21T03:30:55.945Z,100.0
2017-08-21T03:31:57.561Z,100.0
2017-08-21T03:32:59.180Z,100.0
2017-08-21T03:34:00.791Z,100.0
2017-08-21T03:35:02.409Z,100.0
2017-08-21T03:36:04.026Z,100.0
2017-08-21T03:37:05.638Z,100.0
2017-08-21T03:38:07.265Z,100.0
2017-08-21T03:39:08.880Z,100.0
2017-08-21T03:40:10.489Z,100.0
2017-08-21T03:41:12.102Z,100.0
2017-08-21T03:42:13.714Z,100.0
2017-08-21T03:43:15.355Z,100.0
2017-08-21T03:44:16.946Z,100.0
2017-08-21T03:45:18.560Z,100.0
2017-08-21T03:46:20.182Z,100.0
2017-08-21T03:47:21.796Z,100.0
2017-08-21T03:48:23.413Z,100.0
2017-08-21T03:49:25.023Z,100.0
2017-08-21T03:50:26.637Z,100.0
2017-08-21T03:51:28.258Z,100.0
2017-08-21T03:52:29.876Z,100.0
2017-08-21T03:53:31.490Z,100.0
2017-08-21T03:54:33.108Z,100.0
2017-08-21T03:55:34.725Z,100.0
2017-08-21T03:56:36.336Z,100.0
2017-08-21T03:57:37.949Z,100.0
2017-08-21T03:58:39.564Z,100.0
2017-08-21T03:59:41.179Z,100.0
2017-08-21T04:00:42.795Z,100.0
2017-08-21T04:01:44.406Z,100.0
2017-08-21T04:02:46.024Z,100.0
2017-08-21T04:03:47.641Z,100.0
2017-08-21T04:04:49.258Z,100.0
2017-08-21T04:05:50.873Z,100.0
2017-08-21T04:06:52.498Z,100.0
2017-08-21T04:07:54.112Z,100.0
2017-08-21T04:08:55.725Z,100.0
2017-08-21T04:09:57.347Z,100.0
2017-08-21T04:10:58.957Z,100.0
2017-08-21T04:12:00.572Z,100.0
2017-08-21T04:13:02.195Z,100.0
2017-08-21T04:14:03.815Z,100.0
2017-08-21T04:15:05.438Z,100.0
2017-08-21T04:16:07.047Z,100.0
2017-08-21T04:17:08.662Z,100.0
2017-08-21T04:18:10.279Z,100.0
2017-08-21T04:19:11.900Z,100.0
2017-08-21T04:20:13.514Z,100.0
2017-08-21T04:21:15.133Z,100.0
2017-08-21T04:22:16.751Z,100.0
2017-08-21T04:23:18.370Z,100.0
2017-08-21T04:24:19.984Z,100.0
2017-08-21T04:25:21.600Z,100.0
2017-08-21T04:26:23.223Z,100.0
2017-08-21T04:27:24.839Z,100.0
2017-08-21T04:28:26.462Z,100.0
2017-08-21T04:29:28.084Z,100.0
2017-08-21T04:30:29.698Z,100.0
2017-08-21T04:31:31.317Z,100.0
2017-08-21T04:32:32.937Z,100.0
2017-08-21T04:33:34.558Z,100.0
2017-08-21T04:34:36.174Z,100.0
2017-08-21T04:35:37.792Z,100.0
2017-08-21T04:36:39.417Z,100.0
2017-08-21T04:37:41.035Z,100.0
2017-08-21T04:38:42.650Z,100.0
2017-08-21T04:39:44.270Z,100.0
2017-08-21T04:40:45.888Z,100.0
2017-08-21T04:41:47.504Z,100.0
2017-08-21T04:42:49.130Z,100.0
2017-08-21T04:43:50.746Z,100.0
2017-08-21T04:44:52.365Z,100.0
2017-08-21T04:45:53.985Z,100.0
2017-08-21T04:46:55.598Z,100.0
2017-08-21T04:47:57.220Z,100.0
2017-08-21T04:48:58.840Z,100.0
2017-08-21T04:50:00.456Z,100.0
2017-08-21T04:51:02.079Z,100.0
2017-08-21T04:52:03.695Z,100.0
2017-08-21T04:53:05.309Z,100.0
2017-08-21T04:54:06.927Z,100.0
2017-08-21T04:55:08.551Z,100.0
2017-08-21T04:56:10.171Z,100.0
2017-08-21T04:57:11.794Z,100.0
2017-08-21T04:58:13.410Z,100.0
2017-08-21T04:59:15.024Z,100.0
2017-08-21T05:00:16.647Z,100.0
2017-08-21T05:01:18.262Z,100.0
2017-08-21T05:02:19.880Z,100.0
2017-08-21T05:03:21.501Z,100.0
2017-08-21T05:04:23.119Z,100.0
2017-08-21T05:05:24.740Z,100.0
2017-08-21T05:06:26.361Z,100.0
2017-08-21T05:07:27.981Z,100.0
2017-08-21T05:08:29.597Z,100.0
2017-08-21T05:09:31.220Z,100.0
2017-08-21T05:10:32.844Z,100.0
2017-08-21T05:11:34.465Z,100.0
2017-08-21T05:12:36.090Z,100.0
2017-08-21T05:13:37.710Z,100.0
2017-08-21T05:14:39.328Z,100.0
2017-08-21T05:15:40.945Z,100.0
2017-08-21T05:16:42.568Z,100.0
2017-08-21T05:17:44.185Z,100.0
2017-08-21T05:18:45.804Z,100.0
2017-08-21T05:19:47.425Z,100.0
2017-08-21T05:20:49.045Z,100.0
2017-08-21T05:21:50.669Z,100.0
2017-08-21T05:22:52.290Z,100.0
2017-08-21T05:23:53.907Z,100.0
2017-08-21T05:24:55.529Z,100.0
2017-08-21T05:25:57.154Z,100.0
2017-08-21T05:26:58.782Z,100.0
2017-08-21T05:28:00.397Z,100.0
2017-08-21T05:29:02.016Z,100.0
2017-08-21T05:30:03.639Z,99.5
2017-08-21T05:31:05.264Z,99.5
2017-08-21T05:32:06.881Z,99.0
2017-08-21T05:33:08.511Z,99.4
2017-08-21T05:34:10.125Z,99.4
2017-08-21T05:35:11.744Z,99.1
2017-08-21T05:36:13.363Z,98.7
2017-08-21T05:37:14.979Z,98.1
2017-08-21T05:38:16.606Z,98.2
2017-08-21T05:39:18.232Z,98.4
2017-08-21T05:40:19.851Z,98.5
2017-08-21T05:41:21.470Z,98.3
2017-08-21T05:42:23.092Z,98.0
2017-08-21T05:43:24.712Z,98.0
2017-08-21T05:44:26.329Z,97.9
2017-08-21T05:45:27.966Z,97.8
2017-08-21T05:46:29.572Z,97.4
2017-08-21T05:47:31.192Z,97.2
2017-08-21T05:48:32.822Z,97.0
2017-08-21T05:49:34.434Z,96.7
2017-08-21T05:50:36.058Z,96.4
2017-08-21T05:51:37.681Z,96.7
2017-08-21T05:52:39.301Z,96.1
2017-08-21T05:53:40.930Z,96.0
2017-08-21T05:54:42.556Z,95.3
2017-08-21T05:55:44.181Z,95.4
2017-08-21T05:56:45.800Z,94.6
2017-08-21T05:57:47.416Z,95.4
2017-08-21T05:58:49.041Z,95.5
2017-08-21T05:59:50.660Z,95.5
2017-08-21T06:00:52.286Z,94.4
2017-08-21T06:01:53.911Z,94.4
2017-08-21T06:02:55.532Z,94.0
2017-08-21T06:03:57.712Z,93.6
2017-08-21T06:04:59.327Z,93.7
2017-08-21T06:06:00.941Z,93.7
2017-08-21T06:07:02.573Z,93.2
2017-08-21T06:08:04.190Z,93.3
2017-08-21T06:09:05.809Z,93.0
2017-08-21T06:10:07.460Z,92.1
2017-08-21T06:11:09.074Z,92.1
2017-08-21T06:12:10.696Z,92.5
2017-08-21T06:13:12.348Z,92.4
2017-08-21T06:14:13.943Z,91.1
2017-08-21T06:15:15.569Z,91.1
2017-08-21T06:16:17.194Z,90.4
2017-08-21T06:17:18.823Z,90.2
2017-08-21T06:18:20.441Z,90.4
2017-08-21T06:19:22.061Z,89.9
2017-08-21T06:20:23.684Z,89.8
2017-08-21T06:21:25.301Z,89.2
2017-08-21T06:22:26.927Z,88.5
2017-08-21T06:23:28.546Z,88.8
2017-08-21T06:24:30.166Z,87.9
2017-08-21T06:25:31.786Z,86.8
2017-08-21T06:26:33.412Z,87.1
2017-08-21T06:27:35.032Z,86.5
2017-08-21T06:28:36.658Z,85.6
2017-08-21T06:29:38.275Z,84.6
2017-08-21T06:30:39.897Z,84.2
2017-08-21T06:31:41.520Z,84.2
2017-08-21T06:32:43.150Z,80.8
2017-08-21T06:33:44.774Z,78.2
2017-08-21T06:34:46.400Z,76.5
2017-08-21T06:35:48.027Z,76.5
2017-08-21T06:36:49.647Z,76.6
2017-08-21T06:37:51.276Z,73.5
2017-08-21T06:38:52.905Z,70.1
2017-08-21T06:39:54.524Z,69.1
2017-08-21T06:40:56.146Z,66.2
2017-08-21T06:41:57.774Z,65.5
2017-08-21T06:42:59.397Z,62.5
2017-08-21T06:44:01.027Z,60.3
2017-08-21T06:45:02.649Z,59.9
2017-08-21T06:46:04.285Z,59.4
2017-08-21T06:47:05.909Z,56.2
2017-08-21T06:48:07.537Z,55.8
2017-08-21T06:49:09.159Z,53.3
2017-08-21T06:50:10.784Z,53.3
2017-08-21T06:51:12.415Z,51.6
2017-08-21T06:52:14.042Z,51.8
2017-08-21T06:53:15.669Z,49.9
2017-08-21T06:54:17.293Z,49.1
2017-08-21T06:55:18.925Z,48.6
2017-08-21T06:56:20.547Z,48.8
2017-08-21T06:57:22.174Z,48.1
2017-08-21T06:58:23.804Z,46.4
2017-08-21T06:59:25.430Z,46.5
2017-08-21T07:00:27.065Z,46.2
2017-08-21T07:01:28.693Z,45.9
2017-08-21T07:02:30.316Z,43.9
2017-08-21T07:03:31.949Z,43.7
2017-08-21T07:04:33.580Z,43.3
2017-08-21T07:05:35.209Z,43.4
2017-08-21T07:06:36.837Z,42.7
2017-08-21T07:07:38.467Z,42.2
2017-08-21T07:08:40.092Z,42.3
2017-08-21T07:09:41.727Z,42.1
2017-08-21T07:10:43.358Z,42.4
2017-08-21T07:11:44.985Z,40.5
2017-08-21T07:12:46.621Z,39.9
2017-08-21T07:13:48.256Z,40.1
2017-08-21T07:14:49.885Z,39.8
2017-08-21T07:15:51.524Z,38.9
2017-08-21T07:16:53.146Z,39.0
2017-08-21T07:17:54.773Z,37.9
2017-08-21T07:18:56.428Z,37.9
2017-08-21T07:19:58.041Z,37.9
2017-08-21T07:20:59.671Z,37.4
2017-08-21T07:22:01.311Z,35.5
2017-08-21T07:23:02.941Z,36.3
2017-08-21T07:24:04.571Z,36.2
2017-08-21T07:25:06.201Z,34.9
2017-08-21T07:26:07.837Z,34.7
2017-08-21T07:27:09.474Z,34.6
2017-08-21T07:28:11.106Z,34.1
2017-08-21T07:29:12.745Z,33.3
2017-08-21T07:30:14.380Z,33.8
2017-08-21T07:31:16.009Z,32.9
2017-08-21T07:32:17.646Z,31.1
2017-08-21T07:33:19.280Z,30.2
2017-08-21T07:34:20.911Z,30.3
2017-08-21T07:35:22.549Z,29.9
2017-08-21T07:36:24.188Z,29.8
2017-08-21T07:37:25.821Z,28.7
2017-08-21T07:38:27.450Z,28.0
2017-08-21T07:39:29.083Z,27.6
2017-08-21T07:40:30.722Z,27.4
2017-08-21T07:41:32.361Z,28.2
2017-08-21T07:42:33.992Z,27.8
2017-08-21T07:43:35.634Z,26.7
2017-08-21T07:44:37.270Z,26.9
2017-08-21T07:45:38.906Z,26.8
2017-08-21T07:46:40.538Z,26.6
2017-08-21T07:47:42.173Z,26.7
2017-08-21T07:48:43.814Z,25.4
2017-08-21T07:49:45.452Z,25.3
2017-08-21T07:50:47.088Z,25.1
2017-08-21T07:51:48.728Z,25.5
2017-08-21T07:52:50.365Z,25.4
2017-08-21T07:53:52.002Z,25.4
2017-08-21T07:54:53.635Z,23.6
2017-08-21T07:55:55.273Z,24.5
2017-08-21T07:56:56.909Z,24.4
2017-08-21T07:57:58.545Z,24.2
2017-08-21T07:59:00.187Z,24.0
2017-08-21T08:00:01.822Z,22.2
2017-08-21T08:01:03.456Z,22.8
2017-08-21T08:02:05.091Z,22.2
2017-08-21T08:03:06.734Z,22.8
2017-08-21T08:04:08.374Z,21.7
2017-08-21T08:05:10.014Z,22.0
2017-08-21T08:06:11.654Z,22.1
2017-08-21T08:07:13.292Z,22.2
2017-08-21T08:08:14.931Z,22.0
2017-08-21T08:09:16.567Z,21.9
2017-08-21T08:10:18.204Z,22.0
2017-08-21T08:11:19.849Z,21.6
2017-08-21T08:12:21.493Z,21.7
2017-08-21T08:13:23.131Z,21.3
2017-08-21T08:14:24.769Z,21.2
2017-08-21T08:15:26.403Z,21.4
2017-08-21T08:16:28.040Z,20.7
2017-08-21T08:17:29.684Z,20.7
2017-08-21T08:18:31.319Z,20.9
2017-08-21T08:19:32.960Z,21.8
2017-08-21T08:20:34.598Z,20.3
2017-08-21T08:21:36.238Z,20.3
2017-08-21T08:22:37.872Z,21.2
2017-08-21T08:23:39.509Z,21.5
2017-08-21T08:24:41.151Z,20.7
2017-08-21T08:25:42.788Z,20.5
2017-08-21T08:26:44.427Z,20.6
2017-08-21T08:27:46.069Z,20.3
2017-08-21T08:28:47.708Z,20.0
2017-08-21T08:29:49.343Z,20.2
2017-08-21T08:30:50.980Z,19.7
2017-08-21T08:31:52.624Z,19.8
2017-08-21T08:32:54.269Z,19.9
2017-08-21T08:33:55.906Z,19.8
2017-08-21T08:34:57.545Z,19.0
2017-08-21T08:35:59.188Z,19.1
2017-08-21T08:37:00.820Z,19.8
2017-08-21T08:38:02.459Z,20.0
2017-08-21T08:39:04.104Z,19.5
2017-08-21T08:40:05.742Z,18.9
2017-08-21T08:41:07.387Z,18.9
2017-08-21T08:42:09.026Z,18.6
2017-08-21T08:43:10.663Z,18.5
2017-08-21T08:44:12.297Z,18.8
2017-08-21T08:45:13.939Z,16.8
2017-08-21T08:46:15.575Z,17.3
2017-08-21T08:47:17.220Z,18.3
2017-08-21T08:48:18.866Z,18.4
2017-08-21T08:49:20.495Z,18.2
2017-08-21T08:50:22.137Z,18.5
2017-08-21T08:51:23.775Z,18.4
2017-08-21T08:52:25.416Z,17.8
2017-08-21T08:53:27.052Z,18.1
2017-08-21T08:54:28.696Z,18.5
2017-08-21T08:55:30.337Z,18.3
2017-08-21T08:56:31.979Z,17.3
2017-08-21T08:57:33.612Z,18.6
2017-08-21T08:58:35.248Z,18.5
2017-08-21T08:59:36.892Z,18.5
2017-08-21T09:00:38.533Z,18.1
2017-08-21T09:01:40.171Z,18.1
2017-08-21T09:02:41.814Z,17.8
2017-08-21T09:03:43.456Z,17.9
2017-08-21T09:04:45.095Z,17.3
2017-08-21T09:05:46.731Z,17.1
2017-08-21T09:06:48.367Z,17.3
2017-08-21T09:07:50.015Z,16.7
2017-08-21T09:08:51.657Z,17.4
2017-08-21T09:09:53.296Z,17.0
2017-08-21T09:10:54.939Z,16.8
2017-08-21T09:11:56.574Z,17.1
2017-08-21T09:12:58.213Z,16.4
2017-08-21T09:13:59.861Z,15.1
2017-08-21T09:15:01.494Z,15.5
2017-08-21T09:16:03.139Z,15.4
2017-08-21T09:17:04.783Z,17.3
2017-08-21T09:18:06.421Z,17.2
2017-08-21T09:19:08.063Z,17.6
2017-08-21T09:20:09.707Z,18.1
2017-08-21T09:21:11.340Z,18.3
2017-08-21T09:22:12.980Z,16.9
2017-08-21T09:23:14.625Z,17.8
2017-08-21T09:24:16.266Z,17.2
2017-08-21T09:25:17.901Z,17.4
2017-08-21T09:26:19.544Z,17.3
2017-08-21T09:27:21.181Z,17.3
2017-08-21T09:28:22.824Z,15.6
2017-08-21T09:29:24.463Z,16.5
2017-08-21T09:30:26.104Z,17.2
2017-08-21T09:31:27.752Z,16.8
2017-08-21T09:32:29.389Z,16.9
2017-08-21T09:33:31.029Z,18.4
2017-08-21T09:34:32.667Z,18.5
2017-08-21T09:35:34.312Z,18.5
2017-08-21T09:36:35.956Z,18.6
2017-08-21T09:37:37.592Z,18.1
2017-08-21T09:38:39.234Z,17.7
2017-08-21T09:39:40.876Z,18.5
2017-08-21T09:40:42.512Z,18.7
2017-08-21T09:41:44.151Z,19.7
2017-08-21T09:42:45.796Z,18.3
2017-08-21T09:43:47.434Z,18.6
2017-08-21T09:44:49.083Z,18.6
2017-08-21T09:45:50.731Z,16.8
2017-08-21T09:46:52.365Z,16.0
2017-08-21T09:47:54.005Z,16.4
2017-08-21T09:48:55.650Z,16.4
2017-08-21T09:49:57.294Z,17.3
2017-08-21T09:50:58.932Z,18.7
2017-08-21T09:52:00.575Z,18.2
2017-08-21T09:53:02.222Z,18.0
2017-08-21T09:54:03.862Z,18.5
2017-08-21T09:55:05.499Z,18.0
2017-08-21T09:56:07.138Z,17.8
2017-08-21T09:57:08.782Z,20.9
2017-08-21T09:58:10.427Z,18.2
2017-08-21T09:59:12.071Z,18.4
2017-08-21T10:00:13.707Z,19.9
2017-08-21T10:01:15.348Z,20.0
2017-08-21T10:02:16.989Z,22.0
2017-08-21T10:03:18.624Z,22.5
2017-08-21T10:04:20.261Z,22.9
2017-08-21T10:05:21.906Z,23.4
2017-08-21T10:06:23.547Z,24.9
2017-08-21T10:07:25.182Z,25.4
2017-08-21T10:08:26.824Z,25.3
2017-08-21T10:09:28.458Z,26.0
2017-08-21T10:10:30.094Z,25.8
2017-08-21T10:11:31.735Z,25.5
2017-08-21T10:12:33.374Z,24.3
2017-08-21T10:13:35.011Z,24.2
2017-08-21T10:14:36.648Z,25.1
2017-08-21T10:15:38.288Z,24.0
2017-08-21T10:16:39.921Z,22.4
2017-08-21T10:17:41.563Z,21.6
2017-08-21T10:18:43.206Z,22.4
2017-08-21T10:19:44.838Z,22.4
2017-08-21T10:20:46.482Z,20.9
2017-08-21T10:21:48.120Z,20.6
2017-08-21T10:22:49.758Z,22.0
2017-08-21T10:23:51.399Z,21.3
2017-08-21T10:24:53.033Z,21.0
2017-08-21T10:25:54.673Z,20.4
2017-08-21T10:26:56.316Z,21.5
2017-08-21T10:27:57.959Z,20.6
2017-08-21T10:28:59.599Z,18.6
2017-08-21T10:30:01.240Z,17.6
2017-08-21T10:31:02.882Z,18.8
2017-08-21T10:32:04.517Z,18.4
2017-08-21T10:33:06.158Z,18.0
2017-08-21T10:34:07.802Z,18.1
2017-08-21T10:35:09.445Z,20.1
2017-08-21T10:36:11.083Z,20.4
2017-08-21T10:37:12.724Z,20.1
2017-08-21T10:38:14.362Z,19.4
2017-08-21T10:39:15.999Z,17.6
2017-08-21T10:40:17.640Z,17.4
2017-08-21T10:41:19.286Z,17.4
2017-08-21T10:42:20.927Z,18.7
2017-08-21T10:43:22.568Z,18.6
2017-08-21T10:44:24.205Z,16.8
2017-08-21T10:45:25.850Z,18.0
2017-08-21T10:46:27.486Z,18.2
2017-08-21T10:47:29.126Z,18.4
2017-08-21T10:48:30.770Z,18.9
2017-08-21T10:49:32.410Z,18.5
2017-08-21T10:50:34.052Z,20.1
2017-08-21T10:51:35.687Z,18.4
2017-08-21T10:52:37.333Z,19.6
2017-08-21T10:53:38.967Z,19.4
2017-08-21T10:54:40.606Z,18.9
2017-08-21T10:55:42.251Z,17.4
2017-08-21T10:56:43.894Z,18.6
2017-08-21T10:57:45.541Z,17.2
2017-08-21T10:58:47.180Z,17.2
2017-08-21T10:59:48.817Z,17.8
2017-08-21T11:00:50.460Z,16.7
2017-08-21T11:01:52.109Z,16.7
2017-08-21T11:02:53.741Z,16.5
2017-08-21T11:03:55.382Z,17.1
2017-08-21T11:04:57.030Z,17.1
2017-08-21T11:05:58.670Z,14.8
2017-08-21T11:07:00.307Z,17.3
2017-08-21T11:08:01.942Z,17.9
2017-08-21T11:09:03.595Z,17.0
2017-08-21T11:10:05.225Z,17.0
2017-08-21T11:11:06.865Z,18.4
2017-08-21T11:12:08.509Z,18.6
2017-08-21T11:13:10.149Z,17.3
2017-08-21T11:14:11.782Z,19.4
2017-08-21T11:15:13.418Z,18.5
2017-08-21T11:16:15.061Z,20.3
2017-08-21T11:17:16.701Z,19.7
2017-08-21T11:18:18.342Z,20.1
2017-08-21T11:19:19.984Z,19.3
2017-08-21T11:20:21.635Z,18.8
2017-08-21T11:21:23.256Z,19.0
2017-08-21T11:22:24.896Z,17.1
2017-08-21T11:23:26.535Z,18.6
2017-08-21T11:24:28.168Z,16.8
2017-08-21T11:25:29.809Z,16.9
2017-08-21T11:26:31.451Z,18.4
2017-08-21T11:27:33.093Z,18.4
2017-08-21T11:28:34.726Z,18.0
2017-08-21T11:29:36.363Z,17.0
2017-08-21T11:30:38.004Z,17.7
2017-08-21T11:31:39.646Z,17.9
2017-08-21T11:32:41.285Z,16.3
2017-08-21T11:33:42.922Z,17.0
2017-08-21T11:34:44.563Z,17.3
2017-08-21T11:35:46.225Z,19.9
2017-08-21T11:36:47.835Z,18.1
2017-08-21T11:37:49.472Z,16.7
2017-08-21T11:38:51.114Z,16.7
2017-08-21T11:39:52.758Z,17.2
2017-08-21T11:40:54.394Z,17.0
2017-08-21T11:41:56.026Z,17.1
2017-08-21T11:42:57.668Z,15.4
2017-08-21T11:43:59.306Z,16.8
2017-08-21T11:45:00.940Z,16.2
2017-08-21T11:46:02.577Z,18.1
2017-08-21T11:47:04.214Z,17.0
2017-08-21T11:48:05.854Z,17.2
2017-08-21T11:49:07.492Z,17.6
2017-08-21T11:50:09.130Z,17.0
2017-08-21T11:51:10.762Z,16.9
2017-08-21T11:52:12.399Z,18.4
2017-08-21T11:53:14.041Z,18.9
2017-08-21T11:54:15.678Z,19.3
2017-08-21T11:55:17.315Z,20.4
2017-08-21T11:56:18.952Z,19.6
2017-08-21T11:57:20.591Z,20.1
2017-08-21T11:58:22.222Z,20.7
2017-08-21T11:59:23.863Z,20.9
2017-08-21T12:00:25.501Z,19.8
2017-08-21T12:01:27.135Z,20.5
2017-08-21T12:02:28.776Z,20.5
2017-08-21T12:03:30.406Z,18.6
2017-08-21T12:04:32.042Z,18.1
2017-08-21T12:05:33.683Z,16.8
2017-08-21T12:06:35.313Z,18.5
2017-08-21T12:07:36.952Z,19.4
2017-08-21T12:08:38.591Z,18.4
2017-08-21T12:09:40.230Z,18.4
2017-08-21T12:10:41.862Z,16.7
2017-08-21T12:11:43.523Z,17.2
2017-08-21T12:12:45.132Z,18.2
2017-08-21T12:13:46.764Z,17.9
2017-08-21T12:14:48.408Z,19.3
2017-08-21T12:15:50.038Z,19.8
2017-08-21T12:16:51.676Z,19.5
2017-08-21T12:17:53.313Z,18.6
2017-08-21T12:18:54.950Z,17.6
2017-08-21T12:19:56.582Z,17.9
2017-08-21T12:20:58.215Z,18.6
2017-08-21T12:21:59.854Z,17.2
2017-08-21T12:23:01.495Z,18.6
2017-08-21T12:24:03.130Z,19.8
2017-08-21T12:25:04.766Z,18.4
2017-08-21T12:26:06.401Z,19.5
2017-08-21T12:27:08.031Z,19.4
2017-08-21T12:28:09.683Z,18.4
2017-08-21T12:29:11.305Z,18.7
2017-08-21T12:30:12.946Z,18.6
2017-08-21T12:31:14.585Z,16.8
2017-08-21T12:32:16.212Z,17.4
2017-08-21T12:33:17.847Z,17.6
2017-08-21T12:34:19.483Z,16.8
2017-08-21T12:35:21.120Z,19.3
2017-08-21T12:36:22.756Z,19.1
2017-08-21T12:37:24.393Z,18.6
2017-08-21T12:38:26.029Z,19.2
2017-08-21T12:39:27.659Z,20.5
2017-08-21T12:40:29.297Z,19.4
2017-08-21T12:41:30.926Z,18.5
2017-08-21T12:42:32.561Z,19.3
2017-08-21T12:43:34.200Z,17.1
2017-08-21T12:44:35.833Z,18.7
2017-08-21T12:45:37.471Z,18.3
2017-08-21T12:46:39.096Z,17.9
2017-08-21T12:47:40.731Z,19.3
2017-08-21T12:48:42.366Z,19.4
2017-08-21T12:49:44.002Z,19.9
2017-08-21T12:50:45.631Z,20.5
2017-08-21T12:51:47.264Z,20.5
2017-08-21T12:52:48.903Z,19.0
2017-08-21T12:53:50.536Z,18.2
2017-08-21T12:54:52.164Z,19.8
2017-08-21T12:55:53.797Z,20.2
2017-08-21T12:56:55.434Z,20.0
2017-08-21T12:57:57.063Z,18.4
2017-08-21T12:58:58.696Z,17.9
2017-08-21T13:00:00.338Z,18.5
2017-08-21T13:01:01.965Z,19.5
2017-08-21T13:02:03.604Z,19.6
2017-08-21T13:03:05.235Z,20.3
2017-08-21T13:04:06.867Z,21.9
2017-08-21T13:05:08.504Z,21.1
2017-08-21T13:06:10.133Z,21.6
2017-08-21T13:07:11.766Z,21.4
2017-08-21T13:08:13.400Z,21.9
2017-08-21T13:09:15.030Z,22.9
2017-08-21T13:10:16.665Z,22.7
2017-08-21T13:11:18.298Z,21.4
2017-08-21T13:12:19.928Z,21.5
2017-08-21T13:13:21.561Z,22.2
2017-08-21T13:14:23.197Z,23.3
2017-08-21T13:15:24.837Z,22.8
2017-08-21T13:16:26.457Z,22.5
2017-08-21T13:17:28.087Z,23.3
2017-08-21T13:18:29.723Z,24.2
2017-08-21T13:19:31.355Z,25.0
2017-08-21T13:20:32.985Z,26.6
2017-08-21T13:21:34.624Z,25.1
2017-08-21T13:22:36.248Z,25.4
2017-08-21T13:23:37.877Z,24.2
2017-08-21T13:24:39.512Z,25.2
2017-08-21T13:25:41.143Z,24.1
2017-08-21T13:26:42.772Z,25.8
2017-08-21T13:27:44.401Z,26.3
2017-08-21T13:28:46.038Z,25.3
2017-08-21T13:29:47.670Z,27.2
2017-08-21T13:30:49.299Z,27.1
2017-08-21T13:31:50.928Z,27.6
2017-08-21T13:32:52.565Z,27.5
2017-08-21T13:33:54.190Z,26.6
2017-08-21T13:34:55.821Z,28.1